sensor_id;sensor_type;location;lat;lon;timestamp;P1;durP1;ratioP1;P2;durP2;ratioP2
974;SDS011;6115;49.296;10.602;2023-12-29T00:01:18;68.97;;;11.10;;
974;SDS011;6115;49.296;10.602;2023-12-29T00:06:19;69.07;;;11.07;;
974;SDS011;6115;49.296;10.602;2023-12-29T00:11:19;69.80;;;9.83;;
974;SDS011;6115;49.296;10.602;2023-12-29T00:16:20;68.03;;;10.70;;
974;SDS011;6115;49.296;10.602;2023-12-29T00:21:21;68.00;;;10.77;;
974;SDS011;6115;49.296;10.602;2023-12-29T00:26:21;69.80;;;11.07;;
974;SDS011;6115;49.296;10.602;2023-12-29T00:31:22;67.50;;;11.00;;
974;SDS011;6115;49.296;10.602;2023-12-29T00:36:23;69.00;;;10.77;;
974;SDS011;6115;49.296;10.602;2023-12-29T00:41:24;68.60;;;11.30;;
974;SDS011;6115;49.296;10.602;2023-12-29T00:46:25;68.27;;;11.17;;
974;SDS011;6115;49.296;10.602;2023-12-29T00:51:25;67.47;;;10.20;;
974;SDS011;6115;49.296;10.602;2023-12-29T00:56:26;67.30;;;9.97;;
974;SDS011;6115;49.296;10.602;2023-12-29T01:01:26;68.20;;;10.90;;
974;SDS011;6115;49.296;10.602;2023-12-29T01:06:27;67.70;;;10.03;;
974;SDS011;6115;49.296;10.602;2023-12-29T01:11:27;67.07;;;9.80;;
974;SDS011;6115;49.296;10.602;2023-12-29T01:16:28;66.80;;;9.77;;
974;SDS011;6115;49.296;10.602;2023-12-29T01:21:28;67.70;;;9.80;;
974;SDS011;6115;49.296;10.602;2023-12-29T01:26:36;66.33;;;9.10;;
974;SDS011;6115;49.296;10.602;2023-12-29T01:31:38;68.73;;;9.90;;
974;SDS011;6115;49.296;10.602;2023-12-29T01:36:39;67.60;;;10.03;;
974;SDS011;6115;49.296;10.602;2023-12-29T01:41:40;68.77;;;10.50;;
974;SDS011;6115;49.296;10.602;2023-12-29T01:46:40;68.07;;;10.73;;
974;SDS011;6115;49.296;10.602;2023-12-29T01:51:41;68.23;;;10.27;;
974;SDS011;6115;49.296;10.602;2023-12-29T01:56:43;67.37;;;9.80;;
974;SDS011;6115;49.296;10.602;2023-12-29T02:01:44;67.87;;;9.83;;
974;SDS011;6115;49.296;10.602;2023-12-29T02:06:45;68.87;;;9.60;;
974;SDS011;6115;49.296;10.602;2023-12-29T02:11:46;67.70;;;9.40;;
974;SDS011;6115;49.296;10.602;2023-12-29T02:22:07;66.20;;;8.60;;
974;SDS011;6115;49.296;10.602;2023-12-29T02:27:14;69.77;;;9.17;;
974;SDS011;6115;49.296;10.602;2023-12-29T02:32:18;66.70;;;8.50;;
974;SDS011;6115;49.296;10.602;2023-12-29T02:37:20;67.27;;;8.50;;
974;SDS011;6115;49.296;10.602;2023-12-29T02:42:21;67.80;;;9.93;;
974;SDS011;6115;49.296;10.602;2023-12-29T02:47:22;67.37;;;10.10;;
974;SDS011;6115;49.296;10.602;2023-12-29T02:52:31;68.90;;;10.03;;
974;SDS011;6115;49.296;10.602;2023-12-29T02:57:32;68.27;;;10.37;;
974;SDS011;6115;49.296;10.602;2023-12-29T03:02:32;67.37;;;9.83;;
974;SDS011;6115;49.296;10.602;2023-12-29T03:07:34;69.13;;;9.93;;
974;SDS011;6115;49.296;10.602;2023-12-29T03:12:35;66.90;;;9.73;;
974;SDS011;6115;49.296;10.602;2023-12-29T03:17:35;67.63;;;10.07;;
974;SDS011;6115;49.296;10.602;2023-12-29T03:22:36;67.77;;;10.00;;
974;SDS011;6115;49.296;10.602;2023-12-29T03:27:36;69.00;;;9.77;;
974;SDS011;6115;49.296;10.602;2023-12-29T03:32:37;68.13;;;10.07;;
974;SDS011;6115;49.296;10.602;2023-12-29T03:37:37;66.77;;;8.97;;
974;SDS011;6115;49.296;10.602;2023-12-29T03:42:39;67.17;;;9.70;;
974;SDS011;6115;49.296;10.602;2023-12-29T03:47:40;68.07;;;10.07;;
974;SDS011;6115;49.296;10.602;2023-12-29T03:52:40;69.20;;;9.47;;
974;SDS011;6115;49.296;10.602;2023-12-29T03:57:42;67.37;;;9.37;;
974;SDS011;6115;49.296;10.602;2023-12-29T04:02:43;67.50;;;9.63;;
974;SDS011;6115;49.296;10.602;2023-12-29T04:07:43;67.80;;;10.10;;
974;SDS011;6115;49.296;10.602;2023-12-29T04:12:44;66.47;;;9.17;;
974;SDS011;6115;49.296;10.602;2023-12-29T04:17:44;67.00;;;9.00;;
974;SDS011;6115;49.296;10.602;2023-12-29T04:22:46;68.10;;;9.97;;
974;SDS011;6115;49.296;10.602;2023-12-29T04:27:46;66.70;;;9.10;;
974;SDS011;6115;49.296;10.602;2023-12-29T04:32:47;67.03;;;9.17;;
974;SDS011;6115;49.296;10.602;2023-12-29T04:37:47;66.67;;;9.07;;
974;SDS011;6115;49.296;10.602;2023-12-29T04:42:49;67.20;;;9.43;;
974;SDS011;6115;49.296;10.602;2023-12-29T04:47:49;69.20;;;11.23;;
974;SDS011;6115;49.296;10.602;2023-12-29T04:52:50;67.03;;;9.33;;
974;SDS011;6115;49.296;10.602;2023-12-29T04:57:51;66.40;;;8.90;;
974;SDS011;6115;49.296;10.602;2023-12-29T05:02:51;67.60;;;9.70;;
974;SDS011;6115;49.296;10.602;2023-12-29T05:07:52;67.97;;;9.73;;
974;SDS011;6115;49.296;10.602;2023-12-29T05:12:52;66.83;;;8.53;;
974;SDS011;6115;49.296;10.602;2023-12-29T05:17:53;66.67;;;9.00;;
974;SDS011;6115;49.296;10.602;2023-12-29T05:22:53;67.50;;;9.13;;
974;SDS011;6115;49.296;10.602;2023-12-29T05:27:54;67.90;;;9.30;;
974;SDS011;6115;49.296;10.602;2023-12-29T05:32:55;67.40;;;9.70;;
974;SDS011;6115;49.296;10.602;2023-12-29T05:37:55;68.40;;;10.30;;
974;SDS011;6115;49.296;10.602;2023-12-29T05:42:56;67.30;;;10.43;;
974;SDS011;6115;49.296;10.602;2023-12-29T05:47:56;67.63;;;10.20;;
974;SDS011;6115;49.296;10.602;2023-12-29T05:52:57;66.80;;;9.80;;
974;SDS011;6115;49.296;10.602;2023-12-29T05:57:58;70.33;;;10.47;;
974;SDS011;6115;49.296;10.602;2023-12-29T06:02:58;68.73;;;10.90;;
974;SDS011;6115;49.296;10.602;2023-12-29T06:07:59;67.33;;;9.20;;
974;SDS011;6115;49.296;10.602;2023-12-29T06:13:00;67.10;;;9.27;;
974;SDS011;6115;49.296;10.602;2023-12-29T06:18:02;67.50;;;9.50;;
974;SDS011;6115;49.296;10.602;2023-12-29T06:23:03;67.00;;;9.50;;
974;SDS011;6115;49.296;10.602;2023-12-29T06:28:04;67.17;;;9.57;;
974;SDS011;6115;49.296;10.602;2023-12-29T06:33:06;67.70;;;10.60;;
974;SDS011;6115;49.296;10.602;2023-12-29T06:38:07;67.87;;;10.57;;
974;SDS011;6115;49.296;10.602;2023-12-29T06:43:08;69.80;;;11.53;;
974;SDS011;6115;49.296;10.602;2023-12-29T06:48:08;69.40;;;11.90;;
974;SDS011;6115;49.296;10.602;2023-12-29T06:53:09;68.33;;;11.50;;
974;SDS011;6115;49.296;10.602;2023-12-29T06:58:10;68.47;;;11.07;;
974;SDS011;6115;49.296;10.602;2023-12-29T07:03:13;68.30;;;11.10;;
974;SDS011;6115;49.296;10.602;2023-12-29T07:08:15;68.40;;;10.80;;
974;SDS011;6115;49.296;10.602;2023-12-29T07:13:18;67.97;;;10.57;;
974;SDS011;6115;49.296;10.602;2023-12-29T07:18:19;68.20;;;11.10;;
974;SDS011;6115;49.296;10.602;2023-12-29T07:23:19;69.70;;;11.20;;
974;SDS011;6115;49.296;10.602;2023-12-29T07:28:20;67.33;;;10.67;;
974;SDS011;6115;49.296;10.602;2023-12-29T07:33:21;67.30;;;10.10;;
974;SDS011;6115;49.296;10.602;2023-12-29T07:38:21;68.60;;;11.13;;
974;SDS011;6115;49.296;10.602;2023-12-29T07:43:22;68.57;;;10.93;;
974;SDS011;6115;49.296;10.602;2023-12-29T07:48:23;68.20;;;11.43;;
974;SDS011;6115;49.296;10.602;2023-12-29T07:53:23;67.60;;;10.80;;
974;SDS011;6115;49.296;10.602;2023-12-29T07:58:24;67.40;;;10.10;;
974;SDS011;6115;49.296;10.602;2023-12-29T08:03:24;69.07;;;10.67;;
974;SDS011;6115;49.296;10.602;2023-12-29T08:08:25;67.63;;;10.97;;
974;SDS011;6115;49.296;10.602;2023-12-29T08:13:26;68.53;;;10.70;;
974;SDS011;6115;49.296;10.602;2023-12-29T08:18:26;67.50;;;10.70;;
974;SDS011;6115;49.296;10.602;2023-12-29T08:23:28;67.57;;;10.67;;
974;SDS011;6115;49.296;10.602;2023-12-29T08:28:28;68.73;;;11.10;;
974;SDS011;6115;49.296;10.602;2023-12-29T08:33:29;71.50;;;11.47;;
974;SDS011;6115;49.296;10.602;2023-12-29T08:38:30;67.27;;;10.30;;
974;SDS011;6115;49.296;10.602;2023-12-29T08:43:33;66.97;;;9.83;;
974;SDS011;6115;49.296;10.602;2023-12-29T08:48:36;68.00;;;10.40;;
974;SDS011;6115;49.296;10.602;2023-12-29T08:53:36;67.10;;;9.30;;
974;SDS011;6115;49.296;10.602;2023-12-29T08:58:37;67.40;;;9.87;;
974;SDS011;6115;49.296;10.602;2023-12-29T09:03:37;67.20;;;9.73;;
974;SDS011;6115;49.296;10.602;2023-12-29T09:08:38;67.40;;;9.63;;
974;SDS011;6115;49.296;10.602;2023-12-29T09:13:39;67.50;;;10.17;;
974;SDS011;6115;49.296;10.602;2023-12-29T09:18:40;66.70;;;9.20;;
974;SDS011;6115;49.296;10.602;2023-12-29T09:23:40;68.20;;;9.50;;
974;SDS011;6115;49.296;10.602;2023-12-29T09:28:41;67.50;;;10.07;;
974;SDS011;6115;49.296;10.602;2023-12-29T09:33:45;67.40;;;10.07;;
974;SDS011;6115;49.296;10.602;2023-12-29T09:38:46;67.30;;;10.57;;
974;SDS011;6115;49.296;10.602;2023-12-29T09:43:48;67.70;;;10.13;;
974;SDS011;6115;49.296;10.602;2023-12-29T09:48:50;67.87;;;10.40;;
974;SDS011;6115;49.296;10.602;2023-12-29T09:53:54;68.20;;;10.60;;
974;SDS011;6115;49.296;10.602;2023-12-29T09:58:55;69.00;;;10.60;;
974;SDS011;6115;49.296;10.602;2023-12-29T10:03:57;68.00;;;10.67;;
974;SDS011;6115;49.296;10.602;2023-12-29T10:08:58;72.57;;;14.20;;
974;SDS011;6115;49.296;10.602;2023-12-29T10:13:59;73.00;;;13.40;;
974;SDS011;6115;49.296;10.602;2023-12-29T10:19:10;91.87;;;20.97;;
974;SDS011;6115;49.296;10.602;2023-12-29T10:24:29;74.20;;;11.40;;
974;SDS011;6115;49.296;10.602;2023-12-29T10:29:30;68.10;;;11.00;;
974;SDS011;6115;49.296;10.602;2023-12-29T10:34:32;68.70;;;10.90;;
974;SDS011;6115;49.296;10.602;2023-12-29T10:39:33;67.57;;;10.40;;
974;SDS011;6115;49.296;10.602;2023-12-29T10:44:33;68.73;;;11.37;;
974;SDS011;6115;49.296;10.602;2023-12-29T10:49:35;68.10;;;11.03;;
974;SDS011;6115;49.296;10.602;2023-12-29T10:54:36;67.57;;;10.87;;
974;SDS011;6115;49.296;10.602;2023-12-29T10:59:36;67.90;;;11.00;;
974;SDS011;6115;49.296;10.602;2023-12-29T11:04:37;67.17;;;9.37;;
974;SDS011;6115;49.296;10.602;2023-12-29T11:09:37;65.53;;;6.70;;
974;SDS011;6115;49.296;10.602;2023-12-29T11:14:38;64.60;;;5.97;;
974;SDS011;6115;49.296;10.602;2023-12-29T11:19:43;65.13;;;6.10;;
974;SDS011;6115;49.296;10.602;2023-12-29T11:24:46;64.60;;;5.50;;
974;SDS011;6115;49.296;10.602;2023-12-29T11:29:47;64.87;;;5.80;;
974;SDS011;6115;49.296;10.602;2023-12-29T11:35:02;66.20;;;7.23;;
974;SDS011;6115;49.296;10.602;2023-12-29T11:40:19;65.60;;;6.57;;
974;SDS011;6115;49.296;10.602;2023-12-29T11:50:29;65.33;;;6.53;;
974;SDS011;6115;49.296;10.602;2023-12-29T11:55:33;65.77;;;7.10;;
974;SDS011;6115;49.296;10.602;2023-12-29T12:00:45;65.17;;;6.53;;
974;SDS011;6115;49.296;10.602;2023-12-29T12:05:47;64.37;;;6.10;;
974;SDS011;6115;49.296;10.602;2023-12-29T12:10:48;64.27;;;6.13;;
974;SDS011;6115;49.296;10.602;2023-12-29T12:15:49;64.70;;;6.60;;
974;SDS011;6115;49.296;10.602;2023-12-29T12:20:50;63.87;;;6.13;;
974;SDS011;6115;49.296;10.602;2023-12-29T12:25:51;64.40;;;6.10;;
974;SDS011;6115;49.296;10.602;2023-12-29T12:31:06;65.60;;;6.33;;
974;SDS011;6115;49.296;10.602;2023-12-29T12:36:07;64.33;;;6.20;;
974;SDS011;6115;49.296;10.602;2023-12-29T12:41:09;64.50;;;6.10;;
974;SDS011;6115;49.296;10.602;2023-12-29T12:46:12;64.20;;;5.73;;
974;SDS011;6115;49.296;10.602;2023-12-29T12:51:14;65.37;;;6.40;;
974;SDS011;6115;49.296;10.602;2023-12-29T12:56:14;64.43;;;6.10;;
974;SDS011;6115;49.296;10.602;2023-12-29T13:01:16;65.17;;;7.00;;
974;SDS011;6115;49.296;10.602;2023-12-29T13:06:17;64.97;;;6.37;;
974;SDS011;6115;49.296;10.602;2023-12-29T13:11:18;64.37;;;6.10;;
974;SDS011;6115;49.296;10.602;2023-12-29T13:16:31;64.80;;;6.30;;
974;SDS011;6115;49.296;10.602;2023-12-29T13:21:35;64.93;;;6.53;;
974;SDS011;6115;49.296;10.602;2023-12-29T13:26:37;64.20;;;6.03;;
974;SDS011;6115;49.296;10.602;2023-12-29T13:31:37;64.57;;;5.80;;
974;SDS011;6115;49.296;10.602;2023-12-29T13:41:52;64.00;;;5.70;;
974;SDS011;6115;49.296;10.602;2023-12-29T13:46:54;65.70;;;7.70;;
974;SDS011;6115;49.296;10.602;2023-12-29T13:51:58;63.73;;;5.50;;
974;SDS011;6115;49.296;10.602;2023-12-29T13:57:00;64.23;;;6.07;;
974;SDS011;6115;49.296;10.602;2023-12-29T14:02:03;64.60;;;6.30;;
974;SDS011;6115;49.296;10.602;2023-12-29T14:07:33;64.40;;;6.07;;
974;SDS011;6115;49.296;10.602;2023-12-29T14:12:34;64.27;;;5.90;;
974;SDS011;6115;49.296;10.602;2023-12-29T14:17:34;63.97;;;5.93;;
974;SDS011;6115;49.296;10.602;2023-12-29T14:22:35;64.07;;;6.23;;
974;SDS011;6115;49.296;10.602;2023-12-29T14:27:36;66.37;;;7.00;;
974;SDS011;6115;49.296;10.602;2023-12-29T14:32:39;65.20;;;7.00;;
974;SDS011;6115;49.296;10.602;2023-12-29T14:37:39;66.87;;;8.20;;
974;SDS011;6115;49.296;10.602;2023-12-29T14:42:40;64.90;;;6.47;;
974;SDS011;6115;49.296;10.602;2023-12-29T14:47:41;64.40;;;5.90;;
974;SDS011;6115;49.296;10.602;2023-12-29T14:52:42;65.20;;;6.57;;
974;SDS011;6115;49.296;10.602;2023-12-29T14:57:42;66.30;;;6.37;;
974;SDS011;6115;49.296;10.602;2023-12-29T15:02:44;64.87;;;6.30;;
974;SDS011;6115;49.296;10.602;2023-12-29T15:07:45;65.10;;;6.50;;
974;SDS011;6115;49.296;10.602;2023-12-29T15:12:45;64.47;;;5.97;;
974;SDS011;6115;49.296;10.602;2023-12-29T15:17:46;66.30;;;7.20;;
974;SDS011;6115;49.296;10.602;2023-12-29T15:22:47;65.17;;;6.70;;
974;SDS011;6115;49.296;10.602;2023-12-29T15:27:48;65.70;;;6.73;;
974;SDS011;6115;49.296;10.602;2023-12-29T15:32:49;65.63;;;6.80;;
974;SDS011;6115;49.296;10.602;2023-12-29T15:37:49;65.27;;;6.77;;
974;SDS011;6115;49.296;10.602;2023-12-29T15:42:50;65.20;;;7.00;;
974;SDS011;6115;49.296;10.602;2023-12-29T15:47:51;65.57;;;6.97;;
974;SDS011;6115;49.296;10.602;2023-12-29T15:52:52;66.97;;;7.60;;
974;SDS011;6115;49.296;10.602;2023-12-29T15:57:52;66.77;;;7.23;;
974;SDS011;6115;49.296;10.602;2023-12-29T16:02:53;67.00;;;7.40;;
974;SDS011;6115;49.296;10.602;2023-12-29T16:07:53;66.77;;;7.77;;
974;SDS011;6115;49.296;10.602;2023-12-29T16:12:54;66.40;;;7.30;;
974;SDS011;6115;49.296;10.602;2023-12-29T16:17:55;69.00;;;8.00;;
974;SDS011;6115;49.296;10.602;2023-12-29T16:22:55;68.37;;;8.27;;
974;SDS011;6115;49.296;10.602;2023-12-29T16:27:56;66.37;;;7.77;;
974;SDS011;6115;49.296;10.602;2023-12-29T16:32:56;66.47;;;7.80;;
974;SDS011;6115;49.296;10.602;2023-12-29T16:37:58;67.77;;;9.07;;
974;SDS011;6115;49.296;10.602;2023-12-29T16:42:59;66.20;;;7.60;;
974;SDS011;6115;49.296;10.602;2023-12-29T16:47:59;67.10;;;8.10;;
974;SDS011;6115;49.296;10.602;2023-12-29T16:53:02;69.33;;;9.50;;
974;SDS011;6115;49.296;10.602;2023-12-29T16:58:03;69.93;;;9.20;;
974;SDS011;6115;49.296;10.602;2023-12-29T17:03:04;67.40;;;8.73;;
974;SDS011;6115;49.296;10.602;2023-12-29T17:08:04;67.50;;;8.70;;
974;SDS011;6115;49.296;10.602;2023-12-29T17:13:05;69.47;;;8.77;;
974;SDS011;6115;49.296;10.602;2023-12-29T17:18:06;66.77;;;8.30;;
974;SDS011;6115;49.296;10.602;2023-12-29T17:23:07;65.90;;;7.37;;
974;SDS011;6115;49.296;10.602;2023-12-29T17:28:08;67.20;;;8.17;;
974;SDS011;6115;49.296;10.602;2023-12-29T17:33:09;67.67;;;8.70;;
974;SDS011;6115;49.296;10.602;2023-12-29T17:38:09;68.90;;;8.83;;
974;SDS011;6115;49.296;10.602;2023-12-29T17:43:10;66.00;;;7.43;;
974;SDS011;6115;49.296;10.602;2023-12-29T17:48:10;66.00;;;7.20;;
974;SDS011;6115;49.296;10.602;2023-12-29T17:53:11;68.77;;;7.83;;
974;SDS011;6115;49.296;10.602;2023-12-29T17:58:11;66.67;;;8.63;;
974;SDS011;6115;49.296;10.602;2023-12-29T18:03:12;66.30;;;7.93;;
974;SDS011;6115;49.296;10.602;2023-12-29T18:08:13;68.20;;;9.50;;
974;SDS011;6115;49.296;10.602;2023-12-29T18:13:18;67.20;;;8.70;;
974;SDS011;6115;49.296;10.602;2023-12-29T18:18:20;66.80;;;8.07;;
974;SDS011;6115;49.296;10.602;2023-12-29T18:23:21;66.87;;;8.93;;
974;SDS011;6115;49.296;10.602;2023-12-29T18:28:21;67.10;;;8.53;;
974;SDS011;6115;49.296;10.602;2023-12-29T18:33:25;68.17;;;9.20;;
974;SDS011;6115;49.296;10.602;2023-12-29T18:38:26;66.17;;;7.37;;
974;SDS011;6115;49.296;10.602;2023-12-29T18:43:26;66.30;;;8.10;;
974;SDS011;6115;49.296;10.602;2023-12-29T18:48:27;65.87;;;7.30;;
974;SDS011;6115;49.296;10.602;2023-12-29T18:53:34;67.37;;;7.20;;
974;SDS011;6115;49.296;10.602;2023-12-29T18:58:35;68.33;;;7.83;;
974;SDS011;6115;49.296;10.602;2023-12-29T19:03:35;65.97;;;6.73;;
974;SDS011;6115;49.296;10.602;2023-12-29T19:08:37;65.47;;;7.10;;
974;SDS011;6115;49.296;10.602;2023-12-29T19:13:37;65.27;;;6.70;;
974;SDS011;6115;49.296;10.602;2023-12-29T19:18:38;65.43;;;6.70;;
974;SDS011;6115;49.296;10.602;2023-12-29T19:23:42;65.60;;;7.00;;
974;SDS011;6115;49.296;10.602;2023-12-29T19:28:42;65.17;;;6.60;;
974;SDS011;6115;49.296;10.602;2023-12-29T19:33:43;65.07;;;6.50;;
974;SDS011;6115;49.296;10.602;2023-12-29T19:38:44;64.90;;;6.07;;
974;SDS011;6115;49.296;10.602;2023-12-29T19:43:49;65.87;;;6.40;;
974;SDS011;6115;49.296;10.602;2023-12-29T19:48:50;68.37;;;7.90;;
974;SDS011;6115;49.296;10.602;2023-12-29T19:53:52;68.20;;;8.90;;
974;SDS011;6115;49.296;10.602;2023-12-29T19:58:53;65.30;;;6.87;;
974;SDS011;6115;49.296;10.602;2023-12-29T20:03:55;67.50;;;7.27;;
974;SDS011;6115;49.296;10.602;2023-12-29T20:08:56;65.80;;;6.93;;
974;SDS011;6115;49.296;10.602;2023-12-29T20:13:56;65.30;;;7.00;;
974;SDS011;6115;49.296;10.602;2023-12-29T20:18:57;65.40;;;7.40;;
974;SDS011;6115;49.296;10.602;2023-12-29T20:23:58;65.73;;;7.63;;
974;SDS011;6115;49.296;10.602;2023-12-29T20:28:59;66.50;;;7.83;;
974;SDS011;6115;49.296;10.602;2023-12-29T20:34:00;65.70;;;7.67;;
974;SDS011;6115;49.296;10.602;2023-12-29T20:39:01;66.70;;;8.90;;
974;SDS011;6115;49.296;10.602;2023-12-29T20:44:02;66.13;;;7.43;;
974;SDS011;6115;49.296;10.602;2023-12-29T20:49:02;66.47;;;7.90;;
974;SDS011;6115;49.296;10.602;2023-12-29T20:54:03;65.40;;;7.20;;
974;SDS011;6115;49.296;10.602;2023-12-29T20:59:04;66.30;;;7.13;;
974;SDS011;6115;49.296;10.602;2023-12-29T21:04:05;66.17;;;7.20;;
974;SDS011;6115;49.296;10.602;2023-12-29T21:09:10;66.70;;;7.80;;
974;SDS011;6115;49.296;10.602;2023-12-29T21:14:12;66.50;;;7.63;;
974;SDS011;6115;49.296;10.602;2023-12-29T21:19:13;66.77;;;7.30;;
974;SDS011;6115;49.296;10.602;2023-12-29T21:24:13;66.80;;;8.27;;
974;SDS011;6115;49.296;10.602;2023-12-29T21:29:14;66.17;;;8.23;;
974;SDS011;6115;49.296;10.602;2023-12-29T21:34:14;65.20;;;7.30;;
974;SDS011;6115;49.296;10.602;2023-12-29T21:39:17;66.67;;;7.47;;
974;SDS011;6115;49.296;10.602;2023-12-29T21:44:21;65.47;;;7.17;;
974;SDS011;6115;49.296;10.602;2023-12-29T21:49:21;65.40;;;7.13;;
974;SDS011;6115;49.296;10.602;2023-12-29T21:54:22;65.90;;;7.20;;
974;SDS011;6115;49.296;10.602;2023-12-29T21:59:22;65.33;;;7.00;;
974;SDS011;6115;49.296;10.602;2023-12-29T22:04:23;67.60;;;7.90;;
974;SDS011;6115;49.296;10.602;2023-12-29T22:09:24;65.47;;;6.90;;
974;SDS011;6115;49.296;10.602;2023-12-29T22:14:26;66.57;;;8.07;;
974;SDS011;6115;49.296;10.602;2023-12-29T22:19:27;65.80;;;7.73;;
974;SDS011;6115;49.296;10.602;2023-12-29T22:24:27;65.73;;;7.70;;
974;SDS011;6115;49.296;10.602;2023-12-29T22:29:28;66.17;;;8.73;;
974;SDS011;6115;49.296;10.602;2023-12-29T22:34:28;66.97;;;7.90;;
974;SDS011;6115;49.296;10.602;2023-12-29T22:39:29;67.33;;;9.00;;
974;SDS011;6115;49.296;10.602;2023-12-29T22:44:29;72.33;;;8.30;;
974;SDS011;6115;49.296;10.602;2023-12-29T22:49:30;66.87;;;8.50;;
974;SDS011;6115;49.296;10.602;2023-12-29T22:54:31;67.80;;;8.57;;
974;SDS011;6115;49.296;10.602;2023-12-29T22:59:32;67.13;;;8.50;;
974;SDS011;6115;49.296;10.602;2023-12-29T23:04:35;66.13;;;8.20;;
974;SDS011;6115;49.296;10.602;2023-12-29T23:09:36;65.30;;;7.20;;
974;SDS011;6115;49.296;10.602;2023-12-29T23:14:38;65.73;;;7.70;;
974;SDS011;6115;49.296;10.602;2023-12-29T23:19:39;65.50;;;7.40;;
974;SDS011;6115;49.296;10.602;2023-12-29T23:24:42;66.67;;;7.10;;
974;SDS011;6115;49.296;10.602;2023-12-29T23:29:42;65.77;;;7.30;;
974;SDS011;6115;49.296;10.602;2023-12-29T23:34:43;64.63;;;6.53;;
974;SDS011;6115;49.296;10.602;2023-12-29T23:39:44;65.47;;;7.00;;
974;SDS011;6115;49.296;10.602;2023-12-29T23:44:44;67.00;;;7.80;;
974;SDS011;6115;49.296;10.602;2023-12-29T23:49:45;66.77;;;8.00;;
974;SDS011;6115;49.296;10.602;2023-12-29T23:54:48;70.37;;;9.43;;
974;SDS011;6115;49.296;10.602;2023-12-29T23:59:49;66.80;;;8.33;;
